createdAt,value
2018-05-10T00:00:07.548Z,996.99
2018-05-10T00:10:08.596Z,996.98
2018-05-10T00:20:07.576Z,997.01
2018-05-10T00:30:08.581Z,996.82
2018-05-10T00:40:07.560Z,996.79
2018-05-10T00:50:08.441Z,996.73
2018-05-10T01:00:07.582Z,996.78
2018-05-10T01:10:07.573Z,996.64
2018-05-10T01:20:07.583Z,996.75
2018-05-10T01:30:07.615Z,996.8
2018-05-10T01:40:07.573Z,997.01
2018-05-10T01:50:07.567Z,996.89
2018-05-10T02:00:07.579Z,996.92
2018-05-10T02:10:07.610Z,996.84
2018-05-10T02:20:08.570Z,996.9
2018-05-10T02:30:07.562Z,996.87
2018-05-10T02:40:07.574Z,996.93
2018-05-10T02:50:07.563Z,997.22
2018-05-10T03:10:08.570Z,997.57
2018-05-10T03:20:07.581Z,997.8
2018-05-10T03:30:07.552Z,997.7
2018-05-10T03:40:07.591Z,997.69
2018-05-10T04:30:07.575Z,998.33
2018-05-10T04:50:07.577Z,998.5
2018-05-10T05:10:07.560Z,998.92
2018-05-10T05:20:11.887Z,998.96
2018-05-10T05:40:09.656Z,999.4
2018-05-10T06:10:07.558Z,999.46
2018-05-10T06:20:07.564Z,999.15
2018-05-10T06:30:11.418Z,999.36
2018-05-10T06:50:07.582Z,999.96
2018-05-10T07:20:07.635Z,1000.37
2018-05-10T07:30:07.580Z,1000.32
2018-05-10T07:40:07.676Z,1000.46
2018-05-10T07:50:12.771Z,1000.57
2018-05-10T08:00:07.573Z,1000.59
2018-05-10T08:20:07.588Z,1001.04
2018-05-10T09:50:12.875Z,1001.75
2018-05-10T11:00:08.685Z,1003.12
2018-05-10T11:30:07.647Z,1003.69
2018-05-10T12:40:08.859Z,1004.83
2018-05-10T12:50:12.565Z,1004.93
2018-05-10T13:00:08.060Z,1004.99
2018-05-10T13:10:07.680Z,1005.03
2018-05-10T13:20:07.656Z,1005.03
2018-05-10T13:30:11.173Z,1005.17
2018-05-10T13:40:07.776Z,1005.24
2018-05-10T13:50:07.624Z,1005.34
2018-05-10T14:00:07.691Z,1005.46
2018-05-10T14:10:07.689Z,1005.53
2018-05-10T14:20:07.631Z,1005.61
2018-05-10T14:30:07.699Z,1005.69
2018-05-10T14:40:07.683Z,1005.81
2018-05-10T14:50:07.753Z,1005.88
2018-05-10T15:00:07.614Z,1006.02
2018-05-10T15:10:07.667Z,1006.19
2018-05-10T15:20:07.662Z,1006.28
2018-05-10T15:30:07.641Z,1006.37
2018-05-10T15:40:07.753Z,1006.56
2018-05-10T15:50:07.704Z,1006.7
2018-05-10T16:00:07.632Z,1006.87
2018-05-10T16:10:07.720Z,1007.04
2018-05-10T16:20:07.668Z,1007.14
2018-05-10T16:30:07.641Z,1007.25
2018-05-10T16:40:08.712Z,1007.32
2018-05-10T16:50:07.750Z,1007.47
2018-05-10T17:00:07.696Z,1007.59
2018-05-10T17:10:07.769Z,1007.76
2018-05-10T17:20:07.673Z,1007.93
2018-05-10T17:30:07.901Z,1008.24
2018-05-10T17:40:07.658Z,1008.49
2018-05-10T17:50:07.686Z,1008.71
2018-05-10T18:00:07.731Z,1009.03
2018-05-10T18:10:07.679Z,1009.42
2018-05-10T18:20:07.612Z,1009.49
2018-05-10T18:30:07.716Z,1009.63
2018-05-10T18:40:07.655Z,1009.83
2018-05-10T18:50:07.607Z,1009.98
2018-05-10T19:00:07.642Z,1010.2
2018-05-10T19:10:07.709Z,1010.4
2018-05-10T19:20:07.678Z,1010.53
2018-05-10T19:30:07.735Z,1010.75
2018-05-10T19:40:07.713Z,1010.87
2018-05-10T19:50:07.669Z,1011.08
2018-05-10T20:00:07.743Z,1011.23
2018-05-10T20:10:07.680Z,1011.34
2018-05-10T20:20:07.651Z,1011.37
2018-05-10T20:30:07.706Z,1011.5
2018-05-10T20:40:07.683Z,1011.64
2018-05-10T20:50:08.382Z,1011.72
2018-05-10T21:00:07.624Z,1011.83
2018-05-10T21:10:07.655Z,1011.98
2018-05-10T21:20:08.556Z,1012.06
2018-05-10T21:30:07.605Z,1012.15
2018-05-10T21:40:07.624Z,1012.25
2018-05-10T21:50:07.623Z,1012.33
2018-05-10T22:00:07.657Z,1012.4
2018-05-10T22:10:07.722Z,1012.46
2018-05-10T22:20:07.727Z,1012.51
2018-05-10T22:30:07.652Z,1012.52
2018-05-10T22:40:07.717Z,1012.45
2018-05-10T22:50:07.614Z,1012.72
2018-05-10T23:00:07.627Z,1012.72
2018-05-10T23:10:07.710Z,1012.72
2018-05-10T23:20:07.597Z,1012.79
2018-05-10T23:30:07.729Z,1012.78
2018-05-10T23:40:07.614Z,1012.77
2018-05-10T23:50:07.631Z,1012.81
